Time;durP1;ratioP1;P1;durP2;ratioP2;P2;SDS_P1;SDS_P2;PMS_P1;PMS_P2;Temp;Humidity;BMP_temperature;BMP_pressure;BME280_temperature;BME280_humidity;BME280_pressure;Samples;Min_cycle;Max_cycle;Signal;HPM_P1;HPM_P2
2022/05/26 00:02:22;;;;;;;8.90;4.40;;;;;;;14.00;65.91;99069.46;105928;1276;25222;-80
2022/05/26 00:05:10;;;;;;;6.80;3.10;;;;;;;14.03;65.84;99078.09;105824;1276;24391;-82
2022/05/26 00:07:47;;;;;;;6.40;3.10;;;;;;;14.11;65.87;99085.15;105852;1277;25466;-82
2022/05/26 00:10:36;;;;;;;;;;;;;;;;;;;;;
2022/05/26 00:13:22;;;;;;;8.90;3.70;;;;;;;14.17;66.00;99082.27;103032;1279;25593;-81
2022/05/26 00:16:08;;;;;;;7.90;4.20;;;;;;;14.19;65.93;99082.49;105802;1279;22710;-87
2022/05/26 00:19:24;;;;;;;;;;;;;;;;;;;;;
2022/05/26 00:22:20;;;;;;;6.70;3.40;;;;;;;14.20;66.01;99082.61;105930;1276;25321;-82
2022/05/26 00:24:53;;;;;;;7.00;3.10;;;;;;;14.22;66.03;99079.67;105848;1276;22545;-87
2022/05/26 00:27:37;;;;;;;;;;;;;;;;;;;;;
2022/05/26 00:31:24;;;;;;;8.70;3.30;;;;;;;14.23;65.84;99082.98;105888;1276;23945;-81
2022/05/26 00:34:13;;;;;;;6.40;3.30;;;;;;;14.19;65.92;99087.30;105989;1276;24361;-84
2022/05/26 00:37:18;;;;;;;;;;;;;;;;;;;;;
2022/05/26 00:40:23;;;;;;;;;;;;;;;;;;;;;
2022/05/26 00:43:57;;;;;;;;;;;;;;;;;;;;;
2022/05/26 00:47:23;;;;;;;9.00;3.50;;;;;;;13.93;65.97;99087.41;105484;1284;22585;-79
2022/05/26 00:51:08;;;;;;;;;;;;;;;;;;;;;
2022/05/26 00:54:24;;;;;;;;;;;;;;;;;;;;;
2022/05/26 00:57:52;;;;;;;7.10;3.50;;;;;;;13.69;66.33;99087.30;104894;1288;25307;-84
2022/05/26 01:01:12;;;;;;;8.30;3.90;;;;;;;13.64;66.39;99090.79;104900;1290;25320;-81
2022/05/26 01:04:40;;;;;;;8.00;3.80;;;;;;;13.56;66.31;99092.87;104122;1297;24221;-82
2022/05/26 01:07:54;;;;;;;;;;;;;;;;;;;;;
2022/05/26 01:10:55;;;;;;;7.10;3.80;;;;;;;13.42;66.45;99089.78;103928;1294;22746;-83
2022/05/26 01:14:23;;;;;;;;;;;;;;;;;;;;;
2022/05/26 01:17:35;;;;;;;7.30;3.20;;;;;;;13.32;66.67;99088.95;104215;1294;24439;-85
2022/05/26 01:21:01;;;;;;;8.10;3.70;;;;;;;13.27;66.72;99091.16;104238;1294;25356;-79
2022/05/26 01:24:13;;;;;;;9.60;3.80;;;;;;;13.21;66.72;99088.96;104323;1294;25352;-80
2022/05/26 01:27:11;;;;;;;8.20;3.80;;;;;;;13.14;66.94;99091.30;104405;1294;23186;-85
2022/05/26 01:30:08;;;;;;;8.50;3.30;;;;;;;13.10;66.92;99084.66;104449;1285;22571;-86
2022/05/26 01:33:25;;;;;;;;;;;;;;;;;;;;;
2022/05/26 01:36:38;;;;;;;6.60;3.40;;;;;;;13.05;66.84;99082.05;104829;1285;24440;-83
2022/05/26 01:40:10;;;;;;;;;;;;;;;;;;;;;
2022/05/26 01:43:22;;;;;;;;;;;;;;;;;;;;;
2022/05/26 01:46:42;;;;;;;7.50;3.60;;;;;;;12.94;66.89;99083.66;105125;1285;24430;-82
2022/05/26 01:49:59;;;;;;;;;;;;;;;;;;;;;
2022/05/26 01:53:39;;;;;;;8.30;3.20;;;;;;;12.90;67.30;99079.48;105146;1285;22590;-85
2022/05/26 01:56:24;;;;;;;;;;;;;;;;;;;;;
2022/05/26 01:59:28;;;;;;;5.80;3.10;;;;;;;12.88;67.08;99082.41;104162;1293;25271;-87
2022/05/26 02:02:18;;;;;;;7.00;3.40;;;;;;;12.86;67.15;99080.05;103966;1300;24243;-82
2022/05/26 02:09:02;;;;;;;;;;;;;;;;;;;;;
2022/05/26 02:12:31;;;;;;;;;;;;;;;;;;;;;
2022/05/26 02:15:37;;;;;;;7.00;3.30;;;;;;;12.75;67.39;99086.70;103615;1302;22568;-87
2022/05/26 02:19:17;;;;;;;;;;;;;;;;;;;;;
2022/05/26 02:22:18;;;;;;;7.10;2.80;;;;;;;12.72;67.45;99092.05;103971;1298;22692;-85
2022/05/26 02:25:16;;;;;;;;;;;;;;;;;;;;;
2022/05/26 02:28:20;;;;;;;7.00;3.00;;;;;;;12.68;67.29;99099.34;104009;1300;22592;-88
2022/05/26 02:31:04;;;;;;;7.30;3.20;;;;;;;12.66;67.27;99101.11;103984;1300;22680;-83
2022/05/26 02:33:44;;;;;;;9.20;3.30;;;;;;;12.63;67.24;99098.70;104190;1294;25365;-82
2022/05/26 02:36:19;;;;;;;6.50;3.10;;;;;;;12.60;67.31;99095.69;104184;1297;22553;-86
2022/05/26 02:39:52;;;;;;;6.40;2.80;;;;;;;12.59;67.35;99096.65;104358;1288;25354;-82
2022/05/26 02:43:46;;;;;;;;;;;;;;;;;;;;;
2022/05/26 02:47:00;;;;;;;7.10;2.80;;;;;;;12.53;67.09;99094.44;104601;1290;25530;-81
2022/05/26 02:50:38;;;;;;;;;;;;;;;;;;;;;
2022/05/26 02:53:38;;;;;;;7.70;2.50;;;;;;;12.47;67.11;99092.10;104010;1297;25796;-80
2022/05/26 02:56:51;;;;;;;;;;;;;;;;;;;;;
2022/05/26 03:00:04;;;;;;;;;;;;;;;;;;;;;
2022/05/26 03:03:33;;;;;;;8.20;2.80;;;;;;;12.51;67.36;99093.39;103996;1297;22556;-82
2022/05/26 03:06:41;;;;;;;5.90;2.20;;;;;;;12.51;67.37;99093.54;103984;1297;22553;-86
2022/05/26 03:09:30;;;;;;;6.30;2.70;;;;;;;12.52;67.36;99091.00;103925;1297;22651;-86
2022/05/26 03:12:25;;;;;;;7.40;3.40;;;;;;;12.52;67.24;99088.83;103615;1297;22542;-82
2022/05/26 03:15:18;;;;;;;4.70;2.20;;;;;;;12.52;67.30;99089.54;104002;1297;23266;-81
2022/05/26 03:18:16;;;;;;;5.80;2.30;;;;;;;12.54;67.33;99087.08;103973;1297;22561;-82
2022/05/26 03:21:18;;;;;;;8.20;2.60;;;;;;;12.56;67.09;99085.45;103983;1297;22963;-80
2022/05/26 03:24:15;;;;;;;5.90;2.40;;;;;;;12.57;67.22;99087.58;104262;1292;22793;-81
2022/05/26 03:27:14;;;;;;;6.00;2.60;;;;;;;12.56;67.23;99082.27;104603;1287;22531;-80
2022/05/26 03:30:18;;;;;;;;;;;;;;;;;;;;;
2022/05/26 03:33:19;;;;;;;;;;;;;;;;;;;;;
2022/05/26 03:42:17;;;;;;;7.20;2.30;;;;;;;12.71;67.14;99087.70;105256;1284;22825;-82
2022/05/26 03:45:04;;;;;;;8.40;2.90;;;;;;;12.80;67.03;99086.98;105126;1284;22566;-84
2022/05/26 03:48:10;;;;;;;6.70;2.70;;;;;;;12.82;67.08;99087.48;105127;1284;24331;-84
2022/05/26 03:51:29;;;;;;;6.00;2.30;;;;;;;12.91;67.08;99091.75;105447;1282;23366;-84
2022/05/26 03:54:47;;;;;;;8.70;2.30;;;;;;;12.97;66.98;99093.55;105130;1284;25674;-82
2022/05/26 03:57:38;;;;;;;;;;;;;;;;;;;;;
2022/05/26 04:00:42;;;;;;;;;;;;;;;;;;;;;
2022/05/26 04:03:42;;;;;;;5.40;2.40;;;;;;;12.93;67.05;99089.84;105639;1278;25244;-81
2022/05/26 04:06:42;;;;;;;;;;;;;;;;;;;;;
2022/05/26 04:10:09;;;;;;;6.10;2.60;;;;;;;13.08;66.96;99098.59;105639;1280;25358;-79
2022/05/26 04:13:39;;;;;;;6.60;2.40;;;;;;;13.23;67.09;99099.58;105638;1281;24387;-79
2022/05/26 04:16:18;;;;;;;6.70;2.20;;;;;;;13.35;67.07;99093.90;105611;1279;26454;-78
2022/05/26 04:19:10;;;;;;;;;;;;;;;;;;;;;
2022/05/26 04:25:23;;;;;;;;;;;;;;;;;;;;;
2022/05/26 04:28:23;;;;;;;7.00;2.80;;;;;;;13.84;67.00;99092.11;105643;1278;22707;-79
2022/05/26 04:31:43;;;;;;;;;;;;;;;;;;;;;
2022/05/26 04:34:45;;;;;;;5.90;2.80;;;;;;;13.99;66.84;99091.37;105583;1281;22587;-81
2022/05/26 04:37:48;;;;;;;8.60;3.20;;;;;;;14.03;66.85;99091.69;105600;1278;24214;-80
2022/05/26 04:40:45;;;;;;;;;;;;;;;;;;;;;
2022/05/26 04:43:38;;;;;;;;;;;;;;;;;;;;;
2022/05/26 04:46:39;;;;;;;;;;;;;;;;;;;;;
2022/05/26 04:49:28;;;;;;;6.40;2.30;;;;;;;14.39;67.02;99097.41;105652;1279;22553;-81
2022/05/26 04:52:39;;;;;;;;;;;;;;;;;;;;;
2022/05/26 04:55:35;;;;;;;;;;;;;;;;;;;;;
2022/05/26 04:58:42;;;;;;;6.20;2.40;;;;;;;14.64;66.83;99097.00;105647;1277;25228;-86
2022/05/26 05:01:33;;;;;;;8.70;2.40;;;;;;;14.68;66.76;99102.41;105640;1278;22534;-80
2022/05/26 05:05:05;;;;;;;;;;;;;;;;;;;;;
2022/05/26 05:08:08;;;;;;;8.00;2.30;;;;;;;14.83;66.43;99110.91;105921;1278;22546;-83
2022/05/26 05:11:01;;;;;;;5.50;2.00;;;;;;;14.95;66.45;99111.25;106144;1277;22570;-81
2022/05/26 05:13:43;;;;;;;8.10;2.30;;;;;;;15.09;66.46;99109.67;105655;1278;24520;-83
2022/05/26 05:16:51;;;;;;;5.30;2.10;;;;;;;15.20;66.43;99112.95;105701;1278;25315;-82
2022/05/26 05:20:17;;;;;;;5.90;2.00;;;;;;;15.33;66.53;99112.67;106069;1274;22606;-81
2022/05/26 05:23:43;;;;;;;6.30;2.10;;;;;;;15.46;66.37;99111.50;104884;1290;24014;-83
2022/05/26 05:26:50;;;;;;;;;;;;;;;;;;;;;
2022/05/26 05:29:26;;;;;;;6.40;2.50;;;;;;;15.60;66.25;99109.31;105083;1287;22925;-76
2022/05/26 05:32:30;;;;;;;;;;;;;;;;;;;;;
2022/05/26 05:35:42;;;;;;;7.90;2.50;;;;;;;15.71;66.16;99116.61;105304;1287;22600;-86
2022/05/26 05:38:58;;;;;;;6.90;2.40;;;;;;;15.84;66.12;99123.44;104901;1287;25351;-80
2022/05/26 05:41:37;;;;;;;6.70;2.40;;;;;;;15.91;65.82;99120.68;104908;1288;24363;-84
2022/05/26 05:44:17;;;;;;;7.40;2.30;;;;;;;15.97;65.87;99121.87;104742;1290;22511;-80
2022/05/26 05:47:31;;;;;;;;;;;;;;;;;;;;;
2022/05/26 05:50:14;;;;;;;8.60;2.70;;;;;;;16.21;65.97;99124.15;105399;1287;25495;-80
2022/05/26 05:56:13;;;;;;;5.60;2.50;;;;;;;16.48;65.98;99125.86;104929;1290;22685;-84
2022/05/26 05:58:55;;;;;;;6.70;2.60;;;;;;;16.59;65.92;99126.30;104482;1287;25426;-80
2022/05/26 06:01:36;;;;;;;;;;;;;;;;;;;;;
2022/05/26 06:04:09;;;;;;;8.10;2.80;;;;;;;16.86;65.66;99124.55;105768;1281;22543;-84
2022/05/26 06:06:58;;;;;;;7.50;2.30;;;;;;;17.03;65.61;99126.48;105426;1284;22559;-81
2022/05/26 06:09:25;;;;;;;8.00;2.20;;;;;;;17.28;65.58;99128.86;105307;1281;23382;-86
2022/05/26 06:12:02;;;;;;;8.80;2.30;;;;;;;17.48;65.36;99130.84;106110;1284;22558;-81
2022/05/26 06:14:32;;;;;;;9.10;2.60;;;;;;;17.68;65.26;99136.30;105320;1284;22546;-79
2022/05/26 06:17:13;;;;;;;9.80;2.20;;;;;;;17.83;64.95;99135.64;105670;1281;22704;-82
2022/05/26 06:19:45;;;;;;;8.40;1.80;;;;;;;17.88;64.24;99141.33;105412;1281;22709;-80
2022/05/26 06:22:49;;;;;;;5.40;2.10;;;;;;;17.90;64.42;99139.27;104973;1285;22644;-83
2022/05/26 06:25:18;;;;;;;5.80;2.20;;;;;;;18.06;64.70;99139.59;105482;1284;22537;-83
2022/05/26 06:30:52;;;;;;;5.50;1.50;;;;;;;18.49;64.78;99134.27;105781;1278;22766;-86
2022/05/26 06:39:30;;;;;;;5.90;1.00;;;;;;;19.27;63.84;99129.69;105672;1278;22542;-83
2022/05/26 06:42:29;;;;;;;;;;;;;;;;;;;;;
2022/05/26 06:45:05;;;;;;;5.80;0.90;;;;;;;19.08;62.35;99140.50;105774;1280;25232;-81
2022/05/26 06:47:49;;;;;;;6.00;0.90;;;;;;;19.02;62.90;99138.89;105780;1276;22553;-82
2022/05/26 06:50:28;;;;;;;4.20;0.90;;;;;;;19.09;62.79;99138.71;105739;1278;25319;-80
2022/05/26 06:53:26;;;;;;;;;;;;;;;;;;;;;
2022/05/26 06:56:08;;;;;;;6.60;1.10;;;;;;;19.60;63.16;99140.25;105879;1276;26470;-83
2022/05/26 06:59:12;;;;;;;3.40;0.70;;;;;;;19.76;62.37;99140.36;106329;1277;22568;-82
2022/05/26 07:01:53;;;;;;;8.90;1.20;;;;;;;19.85;62.28;99138.30;105864;1277;22576;-84
2022/05/26 07:04:21;;;;;;;5.00;0.80;;;;;;;20.02;62.56;99133.30;105770;1277;24235;-82
2022/05/26 07:06:53;;;;;;;4.30;0.80;;;;;;;20.14;62.05;99138.80;105890;1275;24257;-81
2022/05/26 07:09:22;;;;;;;9.30;1.20;;;;;;;20.16;61.31;99140.46;105758;1278;25241;-79
2022/05/26 07:11:53;;;;;;;3.10;0.90;;;;;;;20.10;61.29;99141.23;105786;1278;24209;-85
2022/05/26 07:14:45;;;;;;;5.60;0.90;;;;;;;20.10;61.45;99145.20;105823;1277;22743;-84
2022/05/26 07:17:29;;;;;;;3.90;0.80;;;;;;;20.20;61.28;99141.77;105830;1277;25388;-78
2022/05/26 07:19:59;;;;;;;6.50;0.70;;;;;;;20.22;60.70;99140.42;105915;1278;22568;-80
2022/05/26 07:22:43;;;;;;;4.90;0.90;;;;;;;20.14;60.76;99144.45;105833;1278;22537;-82
2022/05/26 07:25:12;;;;;;;4.50;0.80;;;;;;;20.33;61.21;99140.73;105744;1281;23958;-83
2022/05/26 07:27:42;;;;;;;5.60;0.70;;;;;;;20.46;60.81;99143.45;105810;1277;22557;-84
2022/05/26 07:30:30;;;;;;;4.70;0.70;;;;;;;20.48;60.48;99141.95;106001;1277;22547;-84
2022/05/26 07:32:59;;;;;;;6.40;0.80;;;;;;;20.50;60.46;99144.23;105600;1277;22780;-82
2022/05/26 07:35:35;;;;;;;4.00;0.70;;;;;;;20.54;60.37;99141.50;105659;1278;25279;-80
2022/05/26 07:41:24;;;;;;;1.80;0.50;;;;;;;20.66;59.54;99147.29;105841;1277;24270;-82
2022/05/26 07:43:59;;;;;;;5.20;0.60;;;;;;;20.51;59.27;99155.34;105876;1276;24378;-82
2022/05/26 07:46:48;;;;;;;5.00;0.70;;;;;;;20.42;59.59;99150.59;105855;1278;22692;-84
2022/05/26 07:49:26;;;;;;;1.70;0.50;;;;;;;20.44;59.13;99150.17;105916;1277;22679;-82
2022/05/26 07:52:10;;;;;;;2.20;0.40;;;;;;;20.42;59.50;99149.27;105783;1277;22704;-82
2022/05/26 07:54:45;;;;;;;4.20;0.70;;;;;;;20.47;57.88;99149.95;105673;1277;24269;-86
2022/05/26 07:57:35;;;;;;;4.70;0.70;;;;;;;20.34;58.59;99153.40;105713;1277;22553;-83
2022/05/26 08:00:24;;;;;;;3.50;0.60;;;;;;;20.47;59.15;99151.10;105867;1277;22733;-82
2022/05/26 08:03:40;;;;;;;3.80;0.80;;;;;;;20.55;58.51;99150.60;105755;1276;24219;-84
2022/05/26 08:06:21;;;;;;;4.10;0.70;;;;;;;20.67;58.68;99154.86;105973;1277;25315;-82
2022/05/26 08:09:07;;;;;;;2.30;0.60;;;;;;;20.81;58.34;99157.26;106001;1277;22640;-85
2022/05/26 08:11:59;;;;;;;2.60;0.50;;;;;;;20.82;57.44;99154.92;105788;1277;24313;-83
2022/05/26 08:14:30;;;;;;;4.20;0.70;;;;;;;20.67;57.27;99153.55;105815;1278;25541;-82
2022/05/26 08:17:29;;;;;;;2.60;0.50;;;;;;;20.61;57.61;99150.85;105910;1276;24299;-84
2022/05/26 08:19:59;;;;;;;3.10;0.40;;;;;;;20.55;56.67;99146.92;105733;1277;22747;-79
2022/05/26 08:22:38;;;;;;;8.00;0.60;;;;;;;20.59;57.31;99145.46;105897;1277;25353;-80
2022/05/26 08:25:09;;;;;;;2.50;0.50;;;;;;;20.68;57.29;99145.24;105867;1277;24201;-79
2022/05/26 08:27:37;;;;;;;4.70;0.60;;;;;;;20.74;57.39;99143.16;105671;1276;22605;-84
2022/05/26 08:30:13;;;;;;;4.70;0.50;;;;;;;20.79;56.71;99139.69;105697;1278;25239;-78
2022/05/26 08:32:59;;;;;;;1.80;0.40;;;;;;;20.80;56.63;99135.79;105664;1277;24061;-84
2022/05/26 08:35:48;;;;;;;4.80;0.60;;;;;;;20.68;56.47;99141.90;106003;1277;22706;-84
2022/05/26 08:38:21;;;;;;;5.70;0.60;;;;;;;20.68;56.75;99139.13;105996;1277;26488;-83
2022/05/26 08:40:54;;;;;;;4.80;0.50;;;;;;;20.73;56.47;99141.30;105871;1276;26450;-79
2022/05/26 08:43:37;;;;;;;5.40;0.50;;;;;;;20.76;56.67;99138.17;105887;1277;22857;-85
2022/05/26 08:46:19;;;;;;;2.80;0.50;;;;;;;20.85;56.38;99139.74;105869;1277;24268;-81
2022/05/26 08:49:14;;;;;;;3.30;0.60;;;;;;;21.10;56.54;99140.58;105799;1277;22574;-87
2022/05/26 08:51:54;;;;;;;4.40;0.50;;;;;;;21.29;56.11;99141.53;105790;1276;24439;-85
2022/05/26 08:55:00;;;;;;;5.00;0.60;;;;;;;21.31;55.69;99145.91;106005;1276;22550;-81
2022/05/26 08:57:42;;;;;;;2.40;0.50;;;;;;;21.29;55.63;99152.33;105201;1284;22577;-82
2022/05/26 09:00:43;;;;;;;5.80;0.60;;;;;;;21.40;55.51;99161.02;105234;1285;24322;-86
2022/05/26 09:03:40;;;;;;;4.10;0.40;;;;;;;21.38;53.86;99160.52;105152;1284;22777;-79
2022/05/26 09:06:27;;;;;;;5.80;0.50;;;;;;;21.06;54.35;99159.26;105198;1284;22592;-81
2022/05/26 09:15:33;;;;;;;;;;;;;;;;;;;;;
2022/05/26 09:18:12;;;;;;;2.60;0.60;;;;;;;21.46;53.52;99159.05;105218;1285;25251;-79
2022/05/26 09:21:00;;;;;;;2.60;0.60;;;;;;;21.65;54.43;99157.38;105169;1284;25248;-80
2022/05/26 09:23:46;;;;;;;2.90;0.40;;;;;;;21.96;54.28;99164.25;105272;1284;22648;-79
2022/05/26 09:26:45;;;;;;;2.90;0.50;;;;;;;22.19;53.42;99163.52;105144;1285;22566;-82
2022/05/26 09:29:25;;;;;;;2.30;0.50;;;;;;;22.56;53.86;99155.08;105092;1284;24232;-84
2022/05/26 09:32:02;;;;;;;1.10;0.40;;;;;;;22.85;52.80;99160.38;105570;1278;25335;-81
2022/05/26 09:35:18;;;;;;;2.50;0.50;;;;;;;22.89;52.84;99166.13;105633;1276;25513;-82
2022/05/26 09:37:53;;;;;;;4.40;0.60;;;;;;;22.94;53.05;99164.85;105948;1276;24362;-82
2022/05/26 09:40:40;;;;;;;2.50;0.60;;;;;;;23.00;52.73;99165.20;105754;1276;22533;-81
2022/05/26 09:43:26;;;;;;;5.70;0.40;;;;;;;23.11;53.01;99162.14;105927;1276;22718;-82
2022/05/26 09:46:14;;;;;;;4.60;0.60;;;;;;;23.11;52.70;99166.90;105881;1277;22747;-87
2022/05/26 09:48:53;;;;;;;5.90;0.80;;;;;;;23.14;51.66;99161.70;105725;1276;22647;-79
2022/05/26 09:51:44;;;;;;;2.30;0.60;;;;;;;23.01;51.72;99172.55;105826;1277;25311;-80
2022/05/26 09:54:30;;;;;;;3.90;0.60;;;;;;;22.92;51.90;99173.55;105908;1276;22561;-85
2022/05/26 09:57:28;;;;;;;3.90;0.60;;;;;;;23.18;52.30;99178.02;105856;1277;22095;-81
2022/05/26 09:59:58;;;;;;;2.90;0.60;;;;;;;23.28;50.87;99172.67;105678;1276;22550;-85
2022/05/26 10:02:47;;;;;;;3.00;0.50;;;;;;;23.48;51.93;99179.18;105862;1276;24207;-81
2022/05/26 10:05:29;;;;;;;4.60;0.50;;;;;;;23.66;51.54;99176.42;105582;1276;24232;-89
2022/05/26 10:08:15;;;;;;;2.20;0.50;;;;;;;23.52;50.32;99184.82;105560;1278;24240;-81
2022/05/26 10:11:35;;;;;;;2.90;0.50;;;;;;;23.23;51.12;99184.84;105917;1277;24219;-87
2022/05/26 10:14:32;;;;;;;3.70;0.70;;;;;;;23.53;51.33;99186.79;105851;1276;22576;-82
2022/05/26 10:17:16;;;;;;;4.70;0.60;;;;;;;23.55;50.69;99180.77;105743;1276;25423;-82
2022/05/26 10:20:04;;;;;;;3.60;0.60;;;;;;;23.49;50.51;99183.46;105873;1276;22590;-83
2022/05/26 10:22:58;;;;;;;3.40;0.60;;;;;;;23.45;50.68;99187.40;105859;1276;22536;-82
2022/05/26 10:25:33;;;;;;;5.50;0.60;;;;;;;22.89;49.17;99195.38;105794;1276;22739;-82
2022/05/26 10:28:19;;;;;;;1.80;0.30;;;;;;;22.58;50.90;99200.17;106220;1276;25529;-79
2022/05/26 10:31:01;;;;;;;2.20;0.40;;;;;;;22.43;50.45;99199.08;106138;1277;22567;-80
2022/05/26 10:33:53;;;;;;;1.70;0.40;;;;;;;22.28;50.43;99205.35;105715;1278;22568;-86
2022/05/26 10:36:49;;;;;;;2.40;0.40;;;;;;;22.30;50.90;99196.05;105703;1278;24337;-85
2022/05/26 10:39:49;;;;;;;3.40;0.50;;;;;;;22.50;50.96;99186.88;105745;1278;22598;-80
2022/05/26 10:42:28;;;;;;;2.60;0.50;;;;;;;22.92;50.66;99193.15;105888;1277;22550;-86
2022/05/26 10:45:45;;;;;;;2.20;0.40;;;;;;;23.37;51.13;99193.42;105741;1279;23069;-77
2022/05/26 10:48:37;;;;;;;1.00;0.30;;;;;;;23.81;49.56;99194.08;105635;1277;22750;-85
2022/05/26 10:51:27;;;;;;;3.50;0.50;;;;;;;23.53;48.91;99201.60;105581;1278;22728;-87
2022/05/26 10:54:05;;;;;;;2.10;0.40;;;;;;;23.33;48.45;99200.19;105609;1278;22847;-79
2022/05/26 10:56:53;;;;;;;3.40;0.50;;;;;;;23.13;48.43;99195.70;105742;1277;25643;-81
2022/05/26 10:59:38;;;;;;;4.00;0.50;;;;;;;23.05;48.63;99197.61;105944;1276;22623;-87
2022/05/26 11:02:32;;;;;;;5.10;0.50;;;;;;;23.04;49.13;99197.81;105943;1277;22546;-76
2022/05/26 11:05:05;;;;;;;4.60;0.70;;;;;;;22.96;48.55;99201.25;105888;1276;25244;-76
2022/05/26 11:07:41;;;;;;;3.70;0.50;;;;;;;22.99;47.83;99198.88;105937;1276;22540;-80
2022/05/26 11:10:50;;;;;;;3.80;0.40;;;;;;;23.00;47.96;99199.48;105865;1277;22870;-83
2022/05/26 11:13:45;;;;;;;3.20;0.40;;;;;;;22.87;48.56;99197.77;105262;1284;24323;-79
2022/05/26 11:19:54;;;;;;;3.20;0.50;;;;;;;22.22;48.63;99213.17;105302;1284;22633;-84
2022/05/26 11:22:47;;;;;;;2.80;0.40;;;;;;;22.31;48.72;99210.66;105257;1284;24277;-83
2022/05/26 11:25:45;;;;;;;2.20;0.40;;;;;;;22.32;47.90;99214.78;105118;1285;22682;-85
2022/05/26 11:28:32;;;;;;;3.00;0.60;;;;;;;22.19;48.56;99208.64;104424;1293;22569;-85
2022/05/26 11:37:34;;;;;;;3.60;0.40;;;;;;;22.46;48.12;99206.73;104403;1294;25415;-78
2022/05/26 11:40:13;;;;;;;2.30;0.40;;;;;;;22.18;48.19;99208.77;104242;1293;24729;-81
2022/05/26 11:42:58;;;;;;;3.60;0.50;;;;;;;21.88;47.84;99208.17;104291;1294;25258;-82
2022/05/26 11:45:37;;;;;;;2.70;0.50;;;;;;;21.60;48.17;99204.19;104177;1294;22566;-85
2022/05/26 11:48:35;;;;;;;3.40;0.40;;;;;;;21.54;48.19;99207.52;104882;1285;24280;-86
2022/05/26 11:51:48;;;;;;;;;;;;;;;;;;;;;
2022/05/26 11:55:23;;;;;;;4.50;0.60;;;;;;;22.21;47.89;99209.13;105094;1287;25314;-82
2022/05/26 11:58:19;;;;;;;4.20;0.50;;;;;;;22.44;48.17;99206.98;105017;1285;25332;-79
2022/05/26 12:01:23;;;;;;;3.10;0.30;;;;;;;22.37;47.36;99201.09;105296;1284;22588;-81
2022/05/26 12:04:34;;;;;;;2.50;0.50;;;;;;;22.22;47.66;99198.56;105211;1285;22535;-84
2022/05/26 12:07:43;;;;;;;2.90;0.50;;;;;;;22.25;47.83;99196.16;105950;1276;22538;-85
2022/05/26 12:11:13;;;;;;;3.00;0.60;;;;;;;22.45;48.17;99192.15;105904;1276;22565;-85
2022/05/26 12:14:18;;;;;;;5.70;0.70;;;;;;;23.00;48.12;99185.10;103382;1278;25606;-81
2022/05/26 12:17:50;;;;;;;2.60;0.60;;;;;;;23.15;47.83;99188.67;105890;1276;24256;-85
2022/05/26 12:20:42;;;;;;;3.60;0.70;;;;;;;23.01;47.56;99183.77;105829;1277;22552;-87
2022/05/26 12:23:53;;;;;;;;;;;;;;;;;;;;;
2022/05/26 12:26:26;;;;;;;3.40;0.60;;;;;;;22.73;46.90;99188.04;105839;1277;22576;-80
2022/05/26 12:28:53;;;;;;;2.90;0.40;;;;;;;22.56;47.15;99188.11;105798;1276;24218;-82
2022/05/26 12:31:25;;;;;;;4.20;0.60;;;;;;;22.49;46.90;99186.31;105940;1277;24439;-82
2022/05/26 12:34:22;;;;;;;3.10;0.30;;;;;;;22.57;46.84;99182.01;105807;1279;25248;-86
2022/05/26 12:37:02;;;;;;;5.40;0.60;;;;;;;22.41;47.26;99178.78;105817;1276;25422;-79
2022/05/26 12:40:10;;;;;;;4.20;0.40;;;;;;;22.44;46.19;99180.37;105758;1276;25348;-79
2022/05/26 12:43:24;;;;;;;1.40;0.40;;;;;;;22.34;46.83;99171.16;105874;1276;22701;-85
2022/05/26 12:46:50;;;;;;;1.70;0.50;;;;;;;22.33;46.81;99174.20;105768;1278;22664;-83
2022/05/26 12:50:38;;;;;;;3.30;0.40;;;;;;;22.63;47.09;99164.61;105897;1276;24212;-81
2022/05/26 12:53:49;;;;;;;3.60;0.40;;;;;;;22.66;45.95;99168.20;105864;1279;25475;-80
2022/05/26 12:57:05;;;;;;;8.70;0.60;;;;;;;22.54;45.66;99163.42;105924;1277;25357;-80
2022/05/26 13:00:18;;;;;;;6.40;0.60;;;;;;;22.44;45.67;99160.48;105934;1276;22570;-83
2022/05/26 13:03:24;;;;;;;4.10;0.50;;;;;;;22.55;45.66;99162.80;105691;1276;25340;-80
2022/05/26 13:06:36;;;;;;;3.10;0.60;;;;;;;22.70;45.97;99158.67;105808;1276;22534;-82
2022/05/26 13:09:25;;;;;;;;;;;;;;;;;;;;;
2022/05/26 13:12:19;;;;;;;3.90;0.60;;;;;;;22.28;45.81;99169.27;105835;1276;22565;-79
2022/05/26 13:15:14;;;;;;;4.10;0.50;;;;;;;22.18;45.66;99165.44;105856;1276;25593;-83
2022/05/26 13:18:11;;;;;;;;;;;;;;;;;;;;;
2022/05/26 13:21:23;;;;;;;;;;;;;;;;;;;;;
2022/05/26 13:24:35;;;;;;;;;;;;;;;;;;;;;
2022/05/26 13:27:45;;;;;;;6.80;0.60;;;;;;;22.96;45.17;99159.67;105869;1276;23945;-81
2022/05/26 13:34:17;;;;;;;4.20;0.40;;;;;;;23.59;45.29;99142.49;105922;1276;25503;-85
2022/05/26 13:37:54;;;;;;;6.00;0.50;;;;;;;23.98;45.43;99139.92;105942;1276;23053;-86
2022/05/26 13:40:29;;;;;;;5.90;0.90;;;;;;;24.10;45.15;99137.23;105839;1276;22559;-81
2022/05/26 13:43:33;;;;;;;;;;;;;;;;;;;;;
2022/05/26 13:46:32;;;;;;;3.20;0.40;;;;;;;23.95;44.59;99135.70;105864;1276;24274;-84
2022/05/26 13:49:36;;;;;;;;;;;;;;;;;;;;;
2022/05/26 13:52:41;;;;;;;2.50;0.30;;;;;;;23.73;44.02;99139.41;105895;1276;22723;-78
2022/05/26 13:55:25;;;;;;;4.50;0.60;;;;;;;23.68;43.79;99134.95;105877;1276;24331;-87
2022/05/26 13:58:21;;;;;;;1.30;0.30;;;;;;;23.68;43.47;99138.17;105760;1276;25496;-85
2022/05/26 14:01:08;;;;;;;3.60;0.40;;;;;;;23.45;43.71;99139.40;105882;1277;22553;-85
2022/05/26 14:04:05;;;;;;;3.30;0.40;;;;;;;23.21;43.43;99143.14;105839;1276;24659;-81
2022/05/26 14:06:48;;;;;;;4.30;0.50;;;;;;;23.09;43.66;99135.95;105945;1276;22567;-79
2022/05/26 14:09:40;;;;;;;2.20;0.50;;;;;;;23.00;43.33;99136.63;105829;1276;22549;-86
2022/05/26 14:12:28;;;;;;;2.40;0.60;;;;;;;23.05;43.93;99140.75;105948;1276;22577;-85
2022/05/26 14:15:41;;;;;;;2.90;0.50;;;;;;;23.29;44.10;99142.17;105914;1276;22711;-85
2022/05/26 14:18:34;;;;;;;1.40;0.40;;;;;;;23.61;43.70;99139.64;105958;1276;22553;-85
2022/05/26 14:21:19;;;;;;;2.10;0.50;;;;;;;23.97;44.07;99137.65;105985;1276;22579;-84
2022/05/26 14:24:29;;;;;;;5.30;0.50;;;;;;;24.19;42.59;99133.87;105937;1276;22818;-83
2022/05/26 14:27:19;;;;;;;2.00;0.40;;;;;;;24.03;43.13;99130.73;106044;1277;24222;-81
2022/05/26 14:30:03;;;;;;;4.60;0.60;;;;;;;23.78;42.73;99138.04;105898;1277;25360;-84
2022/05/26 14:32:38;;;;;;;4.70;0.60;;;;;;;23.67;43.03;99137.21;105830;1277;22534;-78
2022/05/26 14:35:17;;;;;;;4.20;1.20;;;;;;;23.75;43.28;99137.00;105624;1277;25385;-83
2022/05/26 14:37:48;;;;;;;2.40;0.50;;;;;;;23.90;43.46;99133.60;105745;1279;24415;-85
2022/05/26 14:40:24;;;;;;;4.10;0.50;;;;;;;23.96;42.81;99131.96;105913;1276;22539;-85
2022/05/26 14:42:51;;;;;;;1.80;0.40;;;;;;;23.89;43.41;99133.36;105857;1277;22530;-85
2022/05/26 14:45:26;;;;;;;2.30;0.50;;;;;;;23.48;43.12;99132.55;105747;1279;24466;-82
2022/05/26 14:47:58;;;;;;;3.00;0.40;;;;;;;23.33;43.29;99134.25;105582;1276;22713;-83
2022/05/26 14:50:25;;;;;;;3.50;0.40;;;;;;;23.18;43.45;99134.44;105767;1276;25540;-82
2022/05/26 14:52:58;;;;;;;3.20;0.40;;;;;;;23.10;43.43;99134.23;105770;1276;22722;-83
2022/05/26 14:55:31;;;;;;;2.00;0.50;;;;;;;23.11;43.46;99133.84;105741;1278;25253;-81
2022/05/26 14:58:03;;;;;;;2.20;0.50;;;;;;;23.21;43.12;99127.94;105793;1277;25337;-85
2022/05/26 15:00:35;;;;;;;1.60;0.50;;;;;;;23.32;43.30;99128.41;105639;1279;22531;-78
2022/05/26 15:03:22;;;;;;;3.50;0.40;;;;;;;23.62;42.87;99127.54;105808;1276;25515;-79
2022/05/26 15:05:53;;;;;;;3.50;0.40;;;;;;;23.55;42.80;99127.27;105844;1277;25309;-78
2022/05/26 15:08:39;;;;;;;1.50;0.50;;;;;;;23.06;42.67;99129.58;105930;1276;22569;-80
2022/05/26 15:11:14;;;;;;;1.80;0.30;;;;;;;22.58;43.12;99137.24;105820;1276;22530;-83
2022/05/26 15:13:41;;;;;;;3.20;0.60;;;;;;;22.26;42.81;99143.06;105786;1278;25584;-80
2022/05/26 15:16:22;;;;;;;4.50;0.60;;;;;;;22.00;43.04;99141.95;105849;1276;23158;-86
2022/05/26 15:18:54;;;;;;;3.50;0.70;;;;;;;21.88;43.49;99143.27;105671;1276;25222;-79
2022/05/26 15:21:28;;;;;;;2.70;0.50;;;;;;;21.89;43.66;99144.79;105683;1276;22818;-84
2022/05/26 15:23:59;;;;;;;2.10;0.50;;;;;;;22.09;43.29;99145.85;105850;1276;25246;-79
2022/05/26 15:26:34;;;;;;;5.40;0.50;;;;;;;22.25;43.29;99145.60;105907;1276;22608;-87
2022/05/26 15:29:22;;;;;;;6.10;0.60;;;;;;;23.10;42.88;99141.41;105881;1276;24415;-81
2022/05/26 15:32:05;;;;;;;3.70;0.50;;;;;;;23.88;42.50;99136.80;105899;1276;25385;-84
2022/05/26 15:34:46;;;;;;;2.20;0.50;;;;;;;23.61;42.36;99138.30;105752;1276;23941;-80
2022/05/26 15:37:18;;;;;;;1.10;0.40;;;;;;;23.71;42.58;99132.60;105687;1279;22591;-84